Nordic Stockholm — 2DKI2 — position and weather

sailwx.info

Track history (hours):
 
Tides and Currents Weather Stations Pressure Air Temp Water Temp Dewpoint Dewpoint Depression Visibility Wind Speed Wind Dir Waves Ship Positions

Nordic Stockholm

Last reported at 2018-Jan-20 23:38 UTC. Time now 2018-Feb-19 14:38 UTC.
Position N 31°06' E 122°32'.
Warning: this ship's position is 29 days out of date.

Length 180 m; draft 7.1 m.

Type: Cargo ship. MMSI: 235079725.

Date/timePositionNaut miles runAvg speedWind from/ knotsBaromVisibWave heightAir tempDewpointWater temp
2018-Jan-20 23:38N 31°06' E 122°32'911.3
2018-Jan-20 22:49N 31°06' E 122°22'412.7
2018-Jan-20 22:30N 31°07' E 122°17'1312.9
2018-Jan-20 21:28N 31°14' E 122°04'12 9.5
2018-Jan-20 20:16N 31°16' E 121°51'3 9.9
2018-Jan-20 19:56N 31°18' E 121°47'11 8.5
2018-Jan-20 18:37N 31°23' E 121°35'1 7.3
2018-Jan-20 18:29N 31°23' E 121°34'4 7.3
2018-Jan-20 18:00N 31°25' E 121°31'3 6.6
2018-Jan-20 17:30N 31°27' E 121°28'2 4.5
2018-Jan-20 17:00N 31°29' E 121°26'4 7.9
2018-Jan-20 16:30N 31°31' E 121°23'4 8.4
2018-Jan-20 16:00N 31°34' E 121°19'5 9.2
2018-Jan-20 15:30N 31°37' E 121°15'611.5
2018-Jan-20 15:00N 31°41' E 121°10'510.5
2018-Jan-20 14:30N 31°45' E 121°06'6 9.7
2018-Jan-20 13:53N 31°47' E 120°59'  
Track history (hours):
 
Tides and Currents Weather Stations Pressure Air Temp Water Temp Dewpoint Dewpoint Depression Visibility Wind Speed Wind Dir Waves Ship Positions

Nordic Stockholm

Last reported at 2018-Jan-20 23:38 UTC. Time now 2018-Feb-19 14:38 UTC.
Position N 31°06' E 122°32'.
Warning: this ship's position is 29 days out of date.

Length 180 m; draft 7.1 m.

Type: Cargo ship. MMSI: 235079725.

Date/timePositionNaut miles runAvg speedWind from/ knotsBaromVisibWave heightAir tempDewpointWater temp
2018-Jan-20 23:38N 31°06' E 122°32'911.3
2018-Jan-20 22:49N 31°06' E 122°22'412.7
2018-Jan-20 22:30N 31°07' E 122°17'1312.9
2018-Jan-20 21:28N 31°14' E 122°04'12 9.5
2018-Jan-20 20:16N 31°16' E 121°51'3 9.9
2018-Jan-20 19:56N 31°18' E 121°47'11 8.5
2018-Jan-20 18:37N 31°23' E 121°35'1 7.3
2018-Jan-20 18:29N 31°23' E 121°34'4 7.3
2018-Jan-20 18:00N 31°25' E 121°31'3 6.6
2018-Jan-20 17:30N 31°27' E 121°28'2 4.5
2018-Jan-20 17:00N 31°29' E 121°26'4 7.9
2018-Jan-20 16:30N 31°31' E 121°23'4 8.4
2018-Jan-20 16:00N 31°34' E 121°19'5 9.2
2018-Jan-20 15:30N 31°37' E 121°15'611.5
2018-Jan-20 15:00N 31°41' E 121°10'510.5
2018-Jan-20 14:30N 31°45' E 121°06'6 9.7
2018-Jan-20 13:53N 31°47' E 120°59'  

Dump ship's entire track history